Time;durP1;ratioP1;P1;durP2;ratioP2;P2;SDS_P1;SDS_P2;PMS_P1;PMS_P2;Temp;Humidity;BMP_temperature;BMP_pressure;BME280_temperature;BME280_humidity;BME280_pressure;Samples;Min_cycle;Max_cycle;Signal;HPM_P1;HPM_P2
2024/03/17 00:02:01;;;;;;;7.20;2.30;;;15.80;51.10;;;;;;6292146;28;20578;-76
2024/03/17 00:05:02;;;;;;;4.35;1.80;;;15.80;51.30;;;;;;6308137;28;20155;-77
2024/03/17 00:08:07;;;;;;;5.30;2.38;;;15.70;51.60;;;;;;6308362;28;20083;-77
2024/03/17 00:11:08;;;;;;;15.40;2.33;;;15.70;51.90;;;;;;6308500;28;20035;-76
2024/03/17 00:14:11;;;;;;;6.88;1.60;;;15.60;52.00;;;;;;6308047;28;20020;-76
2024/03/17 00:17:13;;;;;;;6.10;2.33;;;15.50;52.10;;;;;;6307980;28;20120;-77
2024/03/17 00:20:21;;;;;;;9.15;2.45;;;15.50;52.20;;;;;;6291117;28;20819;-76
2024/03/17 00:23:22;;;;;;;9.48;1.95;;;15.50;52.40;;;;;;6284866;28;20047;-77
2024/03/17 00:26:24;;;;;;;6.32;2.30;;;15.40;52.40;;;;;;6289660;28;20042;-77
2024/03/17 00:29:25;;;;;;;3.08;1.23;;;15.40;52.40;;;;;;6300210;28;20392;-77
2024/03/17 00:32:26;;;;;;;10.65;1.63;;;15.40;52.40;;;;;;6300100;28;20024;-78
2024/03/17 00:35:27;;;;;;;4.07;1.17;;;15.30;52.40;;;;;;6307194;28;20031;-76
2024/03/17 00:38:29;;;;;;;4.97;1.83;;;15.30;52.40;;;;;;6290365;28;20115;-77
2024/03/17 00:41:31;;;;;;;7.97;1.50;;;15.30;52.40;;;;;;6308283;28;20085;-76
2024/03/17 00:44:32;;;;;;;3.30;1.17;;;15.30;52.40;;;;;;6306711;28;20124;-77
2024/03/17 00:47:33;;;;;;;6.07;1.80;;;15.20;52.40;;;;;;6306961;28;20024;-76
2024/03/17 00:50:34;;;;;;;6.80;2.60;;;15.30;52.50;;;;;;6306768;28;20186;-75
2024/03/17 00:53:35;;;;;;;7.55;1.63;;;15.20;52.40;;;;;;6306625;28;20040;-76
2024/03/17 00:56:36;;;;;;;5.65;1.85;;;15.20;52.30;;;;;;6308214;28;20030;-76
2024/03/17 00:59:37;;;;;;;3.80;1.63;;;15.30;52.40;;;;;;6289325;28;20028;-76
2024/03/17 01:02:39;;;;;;;5.25;1.67;;;15.30;52.30;;;;;;6307187;28;20525;-75
2024/03/17 01:05:42;;;;;;;6.75;1.77;;;15.30;52.30;;;;;;6299178;28;20032;-77
2024/03/17 01:08:43;;;;;;;4.60;1.20;;;15.30;52.90;;;;;;6273496;28;20123;-77
2024/03/17 01:11:45;;;;;;;3.50;1.40;;;15.30;52.20;;;;;;6289349;28;20035;-77
2024/03/17 01:14:46;;;;;;;2.25;1.20;;;15.30;52.20;;;;;;6288867;28;20103;-76
2024/03/17 01:17:47;;;;;;;5.93;1.83;;;15.30;52.20;;;;;;6272859;28;20731;-77
2024/03/17 01:20:49;;;;;;;5.05;1.60;;;15.40;52.20;;;;;;6306761;28;20032;-76
2024/03/17 01:23:52;;;;;;;3.05;1.23;;;15.40;52.70;;;;;;6307507;28;20141;-77
2024/03/17 01:26:53;;;;;;;2.47;1.35;;;15.40;52.20;;;;;;6306325;28;20055;-77
2024/03/17 01:29:54;;;;;;;4.25;1.70;;;15.40;52.20;;;;;;6306247;28;20113;-77
2024/03/17 01:37:18;;;;;;;4.65;1.77;;;15.30;52.40;;;;;;6308259;28;20118;-77
2024/03/17 01:40:19;;;;;;;6.38;1.85;;;15.20;52.50;;;;;;6306561;28;20038;-77
2024/03/17 01:43:20;;;;;;;2.80;1.30;;;15.20;52.50;;;;;;6306657;28;20379;-77
2024/03/17 01:46:21;;;;;;;6.72;1.50;;;15.20;52.40;;;;;;6272674;28;20110;-76
2024/03/17 01:49:22;;;;;;;4.60;1.88;;;15.20;52.50;;;;;;6305596;28;20119;-75
2024/03/17 01:52:23;;;;;;;2.58;1.55;;;15.10;52.60;;;;;;6289474;28;20038;-76
2024/03/17 01:55:25;;;;;;;4.55;1.58;;;15.10;52.70;;;;;;6306394;28;20131;-77
2024/03/17 01:58:30;;;;;;;5.03;1.25;;;15.10;52.80;;;;;;6306670;28;20028;-77
2024/03/17 02:01:32;;;;;;;2.00;1.00;;;15.00;52.80;;;;;;6308387;28;20413;-76
2024/03/17 02:04:34;;;;;;;3.22;0.98;;;15.00;52.80;;;;;;6288950;28;20024;-76
2024/03/17 02:07:36;;;;;;;2.85;1.23;;;15.00;52.70;;;;;;6288953;28;20050;-76
2024/03/17 02:10:37;;;;;;;4.85;1.10;;;14.90;52.50;;;;;;6306256;28;20032;-78
2024/03/17 02:13:38;;;;;;;2.72;1.27;;;14.90;52.60;;;;;;6305782;28;20520;-76
2024/03/17 02:16:40;;;;;;;6.95;1.33;;;14.90;52.50;;;;;;6305734;28;20168;-76
2024/03/17 02:19:41;;;;;;;3.75;1.13;;;14.90;52.40;;;;;;6306085;28;20050;-77
2024/03/17 02:22:43;;;;;;;10.68;1.75;;;14.90;52.40;;;;;;6306860;28;20032;-76
2024/03/17 02:25:45;;;;;;;5.38;1.58;;;14.90;52.40;;;;;;6301031;28;20072;-77
2024/03/17 02:28:47;;;;;;;1.90;1.35;;;14.80;52.40;;;;;;6297131;28;20631;-76
2024/03/17 02:31:49;;;;;;;6.95;1.73;;;14.70;52.50;;;;;;6282440;28;20028;-77
2024/03/17 02:34:51;;;;;;;4.05;1.67;;;14.70;52.80;;;;;;6305112;28;20021;-77
2024/03/17 02:37:52;;;;;;;4.57;1.58;;;14.70;53.20;;;;;;6280387;28;20065;-76
2024/03/17 02:40:53;;;;;;;4.50;1.60;;;14.70;53.40;;;;;;6280434;28;20364;-76
2024/03/17 02:43:54;;;;;;;3.33;1.60;;;14.60;53.60;;;;;;6305229;28;20020;-76
2024/03/17 02:46:57;;;;;;;5.45;1.77;;;14.60;53.90;;;;;;6308727;28;20038;-77
2024/03/17 02:49:59;;;;;;;3.67;1.83;;;14.50;54.00;;;;;;6311796;28;20105;-76
2024/03/17 02:53:02;;;;;;;9.60;2.17;;;14.50;54.10;;;;;;6311414;28;20020;-76
2024/03/17 02:56:04;;;;;;;4.57;1.70;;;14.50;54.30;;;;;;6284810;28;21745;-77
2024/03/17 02:59:04;;;;;;;9.65;2.20;;;14.50;54.30;;;;;;6301620;28;20050;-76
2024/03/17 03:02:05;;;;;;;3.40;1.90;;;14.70;54.50;;;;;;6309836;28;20028;-77
2024/03/17 03:05:06;;;;;;;3.45;1.70;;;14.50;54.50;;;;;;6308313;28;20032;-75
2024/03/17 03:08:08;;;;;;;6.18;2.60;;;14.50;54.60;;;;;;6311602;28;20085;-77
2024/03/17 03:11:11;;;;;;;6.28;1.85;;;14.50;54.70;;;;;;6309918;28;20035;-77
2024/03/17 03:14:14;;;;;;;9.65;1.75;;;14.50;54.70;;;;;;6310562;28;20017;-77
2024/03/17 03:17:15;;;;;;;2.88;1.27;;;14.40;54.70;;;;;;6312254;28;20047;-77
2024/03/17 03:20:18;;;;;;;5.05;1.83;;;14.40;54.70;;;;;;6292287;28;20048;-76
2024/03/17 03:23:19;;;;;;;2.90;1.33;;;14.40;54.70;;;;;;6309877;28;20038;-76
2024/03/17 03:26:21;;;;;;;4.53;1.75;;;14.40;54.60;;;;;;6293074;28;20036;-76
2024/03/17 03:29:22;;;;;;;4.25;1.25;;;14.40;54.50;;;;;;6308675;28;20155;-76
2024/03/17 03:32:23;;;;;;;7.70;1.92;;;14.60;54.30;;;;;;6310550;28;20052;-76
2024/03/17 03:35:26;;;;;;;8.70;1.25;;;14.40;54.00;;;;;;6310680;28;20028;-76
2024/03/17 03:38:27;;;;;;;7.38;1.20;;;14.30;53.70;;;;;;6309333;28;20044;-77
2024/03/17 03:41:28;;;;;;;4.53;1.60;;;14.30;53.70;;;;;;6292826;28;20047;-75
2024/03/17 03:44:29;;;;;;;1.88;0.95;;;14.30;53.70;;;;;;6292367;28;20122;-76
2024/03/17 03:47:30;;;;;;;1.50;1.00;;;14.30;53.60;;;;;;6291962;28;20375;-77
2024/03/17 03:51:09;;;;;;;5.80;1.20;;;14.20;53.50;;;;;;6309733;28;20063;-78
2024/03/17 03:54:12;;;;;;;2.55;0.95;;;14.20;53.70;;;;;;6307325;28;20035;-77
2024/03/17 03:57:12;;;;;;;5.65;1.38;;;14.10;53.70;;;;;;6290581;28;20023;-76
2024/03/17 04:00:23;;;;;;;4.03;0.95;;;14.10;53.70;;;;;;6291552;28;20043;-77
2024/03/17 04:03:24;;;;;;;5.75;1.63;;;14.10;53.70;;;;;;6308551;28;20428;-76
2024/03/17 04:06:26;;;;;;;4.38;1.10;;;14.10;53.60;;;;;;6309333;28;20020;-76
2024/03/17 04:09:27;;;;;;;2.33;1.08;;;14.20;53.60;;;;;;6307464;28;20496;-78
2024/03/17 04:12:30;;;;;;;3.00;1.20;;;14.20;53.70;;;;;;6307509;28;20051;-76
2024/03/17 04:15:32;;;;;;;5.18;1.73;;;14.20;53.70;;;;;;6291403;28;20016;-77
2024/03/17 04:18:34;;;;;;;2.35;1.38;;;14.10;53.70;;;;;;6308473;28;20044;-77
2024/03/17 04:21:35;;;;;;;7.28;1.42;;;14.10;53.70;;;;;;6291592;28;20038;-77
2024/03/17 04:24:37;;;;;;;3.92;1.38;;;14.10;53.80;;;;;;6307693;28;20629;-75
2024/03/17 04:27:38;;;;;;;3.10;1.20;;;14.10;53.70;;;;;;6308276;28;20028;-76
2024/03/17 04:30:39;;;;;;;3.88;1.45;;;14.20;53.80;;;;;;6308460;28;20032;-76
2024/03/17 04:33:40;;;;;;;2.88;1.20;;;14.20;53.80;;;;;;6288621;28;20133;-77
2024/03/17 04:36:43;;;;;;;3.95;1.27;;;14.20;53.90;;;;;;6306111;28;20029;-76
2024/03/17 04:39:46;;;;;;;4.55;1.42;;;14.20;53.90;;;;;;6290411;28;20144;-77
2024/03/17 04:42:47;;;;;;;4.10;1.45;;;14.20;54.00;;;;;;6291057;28;20020;-76
2024/03/17 04:45:49;;;;;;;8.23;1.80;;;14.20;54.10;;;;;;6307269;28;20109;-76
2024/03/17 04:48:50;;;;;;;6.40;1.23;;;14.20;54.10;;;;;;6290910;28;20123;-77
2024/03/17 04:51:51;;;;;;;5.78;1.35;;;14.20;54.30;;;;;;6309678;28;20084;-76
2024/03/17 04:54:53;;;;;;;2.25;0.98;;;14.20;54.50;;;;;;6289753;28;20105;-77
2024/03/17 04:57:54;;;;;;;7.65;1.35;;;14.20;54.70;;;;;;6287529;28;20099;-78
2024/03/17 05:00:55;;;;;;;2.40;1.23;;;14.10;54.70;;;;;;6308658;28;20031;-77
2024/03/17 05:03:57;;;;;;;5.32;1.60;;;14.10;54.80;;;;;;6306831;28;20024;-77
2024/03/17 05:06:58;;;;;;;2.35;1.10;;;14.20;54.70;;;;;;6290445;28;20532;-77
2024/03/17 05:09:59;;;;;;;2.42;0.75;;;14.20;54.30;;;;;;6306383;28;20036;-77
2024/03/17 05:13:00;;;;;;;2.20;1.17;;;14.20;53.90;;;;;;6306480;28;20138;-77
2024/03/17 05:16:03;;;;;;;4.80;1.65;;;14.20;53.80;;;;;;6290145;28;20058;-76
2024/03/17 05:19:04;;;;;;;7.10;1.67;;;14.20;53.70;;;;;;6306518;28;20027;-77
2024/03/17 05:22:06;;;;;;;2.70;1.10;;;14.20;53.70;;;;;;6293189;28;20135;-76
2024/03/17 05:25:07;;;;;;;4.35;1.42;;;14.30;53.60;;;;;;6308227;28;20024;-78
2024/03/17 05:28:08;;;;;;;1.55;1.02;;;14.30;53.50;;;;;;6289693;28;20020;-74
2024/03/17 05:31:14;;;;;;;3.70;1.65;;;14.40;53.50;;;;;;6289432;28;20028;-76
2024/03/17 05:34:16;;;;;;;3.80;1.70;;;14.40;53.50;;;;;;6307767;28;20463;-76
2024/03/17 05:37:17;;;;;;;4.65;1.90;;;14.40;53.60;;;;;;6287619;28;20024;-78
2024/03/17 05:40:18;;;;;;;3.90;2.00;;;14.50;53.90;;;;;;6289195;28;20102;-76
2024/03/17 05:43:20;;;;;;;3.80;1.65;;;14.40;54.00;;;;;;6306677;28;20460;-76
2024/03/17 05:46:28;;;;;;;4.40;1.95;;;14.40;54.20;;;;;;6307201;28;20403;-78
2024/03/17 05:49:30;;;;;;;4.60;1.52;;;14.40;54.40;;;;;;6305590;28;20123;-74
2024/03/17 05:52:32;;;;;;;3.08;1.35;;;14.40;54.50;;;;;;6307668;28;20056;-76
2024/03/17 05:55:36;;;;;;;4.90;1.52;;;14.40;54.60;;;;;;6305835;28;20044;-77
2024/03/17 05:58:39;;;;;;;3.38;1.67;;;14.40;54.70;;;;;;6305100;28;20444;-77
2024/03/17 06:01:40;;;;;;;3.83;2.05;;;14.40;54.70;;;;;;6304993;28;20230;-77
2024/03/17 06:04:41;;;;;;;10.25;2.28;;;14.40;54.70;;;;;;6304302;28;20130;-76
2024/03/17 06:07:43;;;;;;;4.22;1.83;;;14.40;54.70;;;;;;6306379;28;20095;-77
2024/03/17 06:10:46;;;;;;;3.22;1.65;;;14.40;54.80;;;;;;6305561;28;20041;-77
2024/03/17 06:13:47;;;;;;;8.25;1.92;;;14.40;54.90;;;;;;6288520;28;20152;-76
2024/03/17 06:16:48;;;;;;;2.90;1.40;;;14.40;55.00;;;;;;6305194;28;20024;-76
2024/03/17 06:19:49;;;;;;;7.05;1.67;;;14.30;55.10;;;;;;6304656;28;20036;-77
2024/03/17 06:22:51;;;;;;;6.38;1.33;;;14.30;55.20;;;;;;6306545;28;20039;-77
2024/03/17 06:25:54;;;;;;;3.72;1.85;;;14.20;55.30;;;;;;6304478;28;20024;-77
2024/03/17 06:28:56;;;;;;;7.20;1.67;;;14.20;55.40;;;;;;6282929;28;20016;-77
2024/03/17 06:31:58;;;;;;;3.53;1.83;;;14.20;55.50;;;;;;6296727;28;20062;-76
2024/03/17 06:35:02;;;;;;;2.47;2.00;;;14.20;55.60;;;;;;6296758;28;20384;-76
2024/03/17 06:38:05;;;;;;;8.77;1.50;;;14.20;55.50;;;;;;6305204;28;20027;-76
2024/03/17 06:41:06;;;;;;;3.88;1.80;;;14.30;55.60;;;;;;6305794;28;20111;-76
2024/03/17 06:44:07;;;;;;;14.60;2.20;;;14.30;55.50;;;;;;6305566;28;20040;-77
2024/03/17 06:47:10;;;;;;;4.68;1.67;;;14.30;55.40;;;;;;6288490;28;20032;-77
2024/03/17 06:50:11;;;;;;;6.90;1.50;;;14.40;55.30;;;;;;6288778;28;20067;-75
2024/03/17 06:53:13;;;;;;;7.10;2.13;;;14.50;55.20;;;;;;6302725;28;20048;-76
2024/03/17 06:56:13;;;;;;;4.15;1.58;;;14.50;55.00;;;;;;6321573;28;20039;-77
2024/03/17 06:59:14;;;;;;;3.03;1.50;;;14.60;54.90;;;;;;6305060;28;20142;-76
2024/03/17 07:02:18;;;;;;;5.20;2.03;;;14.70;54.80;;;;;;6304812;28;20724;-76
2024/03/17 07:05:20;;;;;;;5.20;1.63;;;14.70;54.70;;;;;;6305397;28;20515;-77
2024/03/17 07:08:21;;;;;;;3.08;1.42;;;14.70;54.70;;;;;;6305816;28;20037;-77
2024/03/17 07:11:24;;;;;;;5.20;1.60;;;14.80;54.60;;;;;;6288663;28;20081;-77
2024/03/17 07:14:26;;;;;;;4.30;1.70;;;14.80;54.50;;;;;;6307265;28;20043;-76
2024/03/17 07:17:27;;;;;;;6.85;1.70;;;14.80;54.30;;;;;;6305030;28;20130;-77
2024/03/17 07:20:33;;;;;;;3.13;1.88;;;14.90;54.20;;;;;;6305183;28;20020;-77
2024/03/17 07:23:36;;;;;;;4.30;1.75;;;15.00;54.20;;;;;;6305373;28;20169;-76
2024/03/17 07:26:38;;;;;;;7.18;1.80;;;15.00;54.00;;;;;;6307201;28;20137;-77
2024/03/17 07:29:41;;;;;;;4.70;1.55;;;15.10;53.90;;;;;;6304822;28;20061;-78
2024/03/17 07:32:42;;;;;;;6.72;1.70;;;15.10;53.90;;;;;;6307959;28;20016;-77
2024/03/17 07:35:56;;;;;;;5.05;1.15;;;15.10;53.70;;;;;;6310767;28;20042;-77
2024/03/17 07:38:59;;;;;;;2.47;1.27;;;15.10;53.40;;;;;;6309318;28;20069;-78
2024/03/17 07:42:01;;;;;;;3.63;1.20;;;15.20;53.00;;;;;;6292146;28;20097;-77
2024/03/17 07:45:04;;;;;;;10.27;1.45;;;15.20;52.80;;;;;;6293255;28;20031;-77
2024/03/17 07:48:05;;;;;;;3.65;1.35;;;15.20;52.70;;;;;;6311030;28;20051;-76
2024/03/17 07:51:09;;;;;;;3.17;1.20;;;15.30;52.50;;;;;;6307959;28;20070;-77
2024/03/17 07:54:09;;;;;;;3.58;0.60;;;15.30;52.50;;;;;;6308653;28;20028;-76
2024/03/17 07:57:11;;;;;;;2.58;1.08;;;15.40;52.20;;;;;;6283263;28;20115;-77
2024/03/17 08:00:19;;;;;;;6.40;1.20;;;15.50;51.80;;;;;;6291977;28;20028;-76
2024/03/17 08:03:21;;;;;;;3.85;1.08;;;15.60;51.70;;;;;;6309049;28;20016;-77
2024/03/17 08:06:24;;;;;;;6.35;1.05;;;15.70;51.50;;;;;;6309221;28;20035;-77
2024/03/17 08:09:24;;;;;;;4.50;1.08;;;15.70;51.40;;;;;;6308715;28;20072;-77
2024/03/17 08:12:29;;;;;;;2.13;1.10;;;15.80;52.00;;;;;;6291887;28;20028;-76
2024/03/17 08:15:31;;;;;;;5.03;1.95;;;15.90;51.50;;;;;;6310686;28;20020;-76
2024/03/17 08:18:33;;;;;;;6.28;1.90;;;16.00;51.60;;;;;;6315711;28;20016;-76
2024/03/17 08:21:33;;;;;;;3.72;1.67;;;16.00;51.80;;;;;;6313303;28;20448;-77
2024/03/17 08:24:34;;;;;;;8.15;1.67;;;15.80;52.10;;;;;;6306589;28;20067;-76
2024/03/17 08:27:35;;;;;;;3.45;1.70;;;15.90;52.30;;;;;;6299315;28;20092;-76
2024/03/17 08:30:37;;;;;;;3.28;1.75;;;15.90;52.50;;;;;;6306755;28;20111;-76
2024/03/17 08:33:38;;;;;;;4.22;1.75;;;15.90;52.50;;;;;;6309765;28;20118;-77
2024/03/17 08:36:39;;;;;;;3.40;2.85;;;16.00;52.40;;;;;;6291296;28;20032;-77
2024/03/17 08:39:40;;;;;;;3.88;1.80;;;16.00;52.40;;;;;;6291615;28;20177;-76
2024/03/17 08:42:41;;;;;;;5.20;1.65;;;16.10;52.30;;;;;;6291229;28;20464;-75
2024/03/17 08:45:43;;;;;;;5.15;2.13;;;16.20;52.10;;;;;;6306977;28;20114;-77
2024/03/17 08:48:44;;;;;;;3.13;1.70;;;16.30;52.00;;;;;;6307054;28;20020;-75
2024/03/17 08:51:45;;;;;;;13.35;1.85;;;16.30;52.00;;;;;;6306981;28;20043;-76
2024/03/17 08:54:47;;;;;;;6.32;1.90;;;16.50;51.90;;;;;;6307132;28;20718;-75
2024/03/17 08:57:48;;;;;;;5.50;2.05;;;16.60;51.70;;;;;;6307145;28;20016;-75
2024/03/17 09:00:49;;;;;;;7.43;1.83;;;16.70;51.50;;;;;;6307769;28;20035;-77
2024/03/17 09:03:52;;;;;;;4.35;1.60;;;16.70;51.40;;;;;;6306939;28;20476;-77
2024/03/17 09:06:54;;;;;;;4.22;1.70;;;16.60;51.50;;;;;;6308943;28;20027;-78
2024/03/17 09:09:55;;;;;;;10.88;2.33;;;16.70;51.60;;;;;;6308358;28;20559;-78
2024/03/17 09:12:56;;;;;;;4.22;1.80;;;16.70;51.50;;;;;;6307662;28;20050;-77
2024/03/17 09:15:59;;;;;;;7.78;2.30;;;16.80;51.40;;;;;;6307326;28;20541;-77
2024/03/17 09:19:01;;;;;;;4.32;1.77;;;16.90;51.30;;;;;;6308578;28;20016;-77
2024/03/17 09:22:02;;;;;;;2.30;1.40;;;17.00;50.90;;;;;;6308744;28;20051;-76
2024/03/17 09:25:08;;;;;;;5.15;1.85;;;17.10;50.60;;;;;;6306624;28;20024;-77
2024/03/17 09:28:11;;;;;;;6.53;2.45;;;17.10;50.40;;;;;;6307748;28;20480;-76
2024/03/17 09:31:12;;;;;;;5.20;2.03;;;17.20;50.40;;;;;;6306649;28;20032;-76
2024/03/17 09:34:14;;;;;;;7.93;1.77;;;17.40;50.30;;;;;;6306624;28;20017;-77
2024/03/17 09:37:18;;;;;;;6.43;1.42;;;17.50;49.90;;;;;;6306268;28;20027;-77
2024/03/17 09:40:19;;;;;;;4.22;1.98;;;17.40;49.70;;;;;;6290165;28;20036;-77
2024/03/17 09:43:21;;;;;;;9.57;1.45;;;17.50;49.80;;;;;;6305971;28;20077;-77
2024/03/17 09:46:27;;;;;;;3.30;1.10;;;17.50;49.80;;;;;;6289708;28;20035;-77
2024/03/17 09:49:28;;;;;;;2.33;1.30;;;17.60;49.70;;;;;;6307668;28;20028;-76
2024/03/17 09:52:29;;;;;;;2.85;1.05;;;17.70;49.40;;;;;;6305670;28;20123;-76
2024/03/17 09:55:30;;;;;;;3.20;1.20;;;17.80;48.90;;;;;;6305445;28;20516;-78
2024/03/17 09:58:31;;;;;;;2.15;1.42;;;17.80;48.60;;;;;;6305129;28;20024;-77
2024/03/17 10:01:33;;;;;;;4.18;1.13;;;17.80;48.40;;;;;;6307215;28;20042;-76
2024/03/17 10:04:34;;;;;;;3.25;1.30;;;17.80;48.50;;;;;;6307091;28;20016;-76
2024/03/17 10:07:39;;;;;;;3.85;1.45;;;17.90;48.30;;;;;;6305803;28;20028;-76
2024/03/17 10:10:40;;;;;;;5.05;1.95;;;17.90;48.10;;;;;;6304790;28;20614;-76
2024/03/17 10:13:46;;;;;;;7.70;1.90;;;17.90;48.00;;;;;;6305824;28;20024;-77
2024/03/17 10:16:47;;;;;;;4.88;2.40;;;18.00;48.20;;;;;;6299953;28;20403;-77
2024/03/17 10:19:48;;;;;;;4.00;2.00;;;18.10;48.00;;;;;;6287120;28;20085;-77
2024/03/17 10:23:10;;;;;;;4.28;1.95;;;18.30;47.70;;;;;;6305850;28;20032;-76
2024/03/17 10:26:16;;;;;;;10.10;1.75;;;18.50;47.50;;;;;;6306062;28;20044;-77
2024/03/17 10:29:35;;;;;;;2.80;1.63;;;18.60;46.90;;;;;;6305681;28;20499;-78
2024/03/17 10:32:37;;;;;;;3.85;1.35;;;18.70;46.70;;;;;;6288564;28;20170;-77
2024/03/17 10:35:41;;;;;;;2.83;1.10;;;18.80;46.60;;;;;;6288001;28;20024;-77
2024/03/17 10:38:52;;;;;;;4.15;1.10;;;18.90;46.50;;;;;;6299621;28;20024;-77
2024/03/17 10:41:58;;;;;;;2.50;1.10;;;19.20;46.10;;;;;;6303842;28;20121;-78
2024/03/17 10:44:59;;;;;;;7.55;1.27;;;19.60;45.10;;;;;;6288539;28;20020;-77
2024/03/17 10:48:01;;;;;;;19.67;2.70;;;19.80;43.90;;;;;;6303064;28;20021;-77
2024/03/17 10:51:02;;;;;;;5.70;1.90;;;20.00;43.60;;;;;;6297224;28;20043;-77
2024/03/17 10:54:03;;;;;;;4.82;1.50;;;20.20;43.30;;;;;;6304220;28;20089;-77
2024/03/17 10:57:05;;;;;;;5.28;1.88;;;20.40;42.40;;;;;;6306133;28;20039;-78
2024/03/17 11:00:12;;;;;;;6.28;2.45;;;20.70;42.30;;;;;;6304773;28;20096;-78
2024/03/17 11:03:14;;;;;;;5.15;2.22;;;20.90;41.60;;;;;;6304807;28;20031;-78
2024/03/17 11:06:17;;;;;;;5.15;1.60;;;21.20;41.20;;;;;;6288281;28;20127;-76
2024/03/17 11:09:20;;;;;;;2.38;1.30;;;21.30;40.40;;;;;;6309259;28;20020;-78
2024/03/17 11:12:47;;;;;;;3.88;1.35;;;21.40;39.70;;;;;;6309682;28;20032;-78
2024/03/17 11:15:51;;;;;;;7.10;2.00;;;21.40;39.40;;;;;;6310316;28;20082;-77
2024/03/17 11:18:52;;;;;;;8.02;3.17;;;21.50;39.60;;;;;;6309179;28;20016;-78
2024/03/17 11:21:55;;;;;;;5.25;1.83;;;21.70;39.50;;;;;;6309378;28;20164;-78
2024/03/17 11:25:17;;;;;;;5.05;2.15;;;21.90;39.30;;;;;;6308754;28;20099;-78
2024/03/17 11:28:41;;;;;;;5.13;2.45;;;22.00;39.50;;;;;;6286833;28;20048;-78
2024/03/17 11:31:44;;;;;;;3.70;1.63;;;22.40;39.30;;;;;;6309252;28;20024;-77
2024/03/17 11:34:45;;;;;;;6.28;1.58;;;22.70;38.80;;;;;;6310154;28;20015;-78
2024/03/17 11:37:46;;;;;;;4.57;1.35;;;23.00;38.20;;;;;;6312153;28;20471;-78
2024/03/17 11:40:48;;;;;;;2.70;0.80;;;23.20;38.10;;;;;;6310924;28;20016;-77
2024/03/17 11:43:49;;;;;;;7.82;3.00;;;23.40;37.70;;;;;;6310023;28;20020;-78
2024/03/17 11:46:58;;;;;;;2.35;1.10;;;23.70;37.00;;;;;;6291028;28;20642;-76
2024/03/17 11:50:06;;;;;;;0.93;0.80;;;23.90;36.40;;;;;;6302990;28;20024;-77
2024/03/17 11:53:09;;;;;;;;;;;23.90;35.80;;;;;;6291147;28;20251;-77
2024/03/17 11:56:11;;;;;;;5.50;1.85;;;24.00;36.10;;;;;;6308879;28;19908;-78
2024/03/17 11:59:13;;;;;;;4.35;1.38;;;24.10;35.20;;;;;;6311183;28;20123;-77
2024/03/17 12:02:23;;;;;;;6.85;2.53;;;24.00;35.40;;;;;;6309375;28;20030;-77
2024/03/17 12:05:25;;;;;;;6.45;2.05;;;24.10;35.20;;;;;;6310597;28;20023;-76
2024/03/17 12:08:26;;;;;;;5.65;1.15;;;24.10;35.10;;;;;;6285986;28;20116;-77
2024/03/17 12:11:27;;;;;;;5.75;1.67;;;24.40;35.10;;;;;;6309606;28;20282;-78
2024/03/17 12:14:28;;;;;;;3.95;0.70;;;24.50;34.70;;;;;;6291704;28;20599;-76
2024/03/17 12:17:29;;;;;;;3.20;0.90;;;24.70;34.60;;;;;;6291729;28;20032;-76
2024/03/17 12:20:32;;;;;;;7.60;2.58;;;24.80;34.30;;;;;;6311783;28;20040;-78
2024/03/17 12:23:34;;;;;;;4.53;1.33;;;25.00;34.20;;;;;;6275601;28;20500;-77
2024/03/17 12:26:35;;;;;;;3.75;1.50;;;25.20;33.80;;;;;;6305335;28;20550;-77
2024/03/17 12:29:41;;;;;;;7.53;1.42;;;25.30;33.60;;;;;;6308523;28;20028;-77
2024/03/17 12:32:44;;;;;;;3.33;1.13;;;25.50;33.30;;;;;;6309138;28;20486;-79
2024/03/17 12:35:47;;;;;;;3.17;0.98;;;25.50;33.10;;;;;;6309051;28;20016;-76
2024/03/17 12:38:48;;;;;;;8.98;1.75;;;25.60;33.10;;;;;;6289737;28;20455;-77
2024/03/17 12:42:24;;;;;;;6.32;2.20;;;25.60;32.50;;;;;;6309025;28;20028;-79
2024/03/17 12:45:26;;;;;;;2.13;1.05;;;25.30;32.60;;;;;;6223279;28;20056;-75
2024/03/17 12:48:27;;;;;;;3.92;1.15;;;25.10;32.80;;;;;;6252622;28;20029;-77
2024/03/17 12:51:28;;;;;;;5.00;1.70;;;24.90;33.30;;;;;;6272329;28;20519;-78
2024/03/17 12:54:30;;;;;;;3.08;1.45;;;24.80;33.60;;;;;;6240067;28;20077;-78
2024/03/17 13:01:02;;;;;;;4.03;0.68;;;24.80;33.70;;;;;;6244403;28;20040;-77
2024/03/17 13:04:09;;;;;;;4.85;1.15;;;24.90;33.60;;;;;;6238489;28;20123;-78
2024/03/17 13:07:11;;;;;;;2.40;0.80;;;25.00;33.40;;;;;;6223012;28;20045;-77
2024/03/17 13:10:15;;;;;;;4.55;1.48;;;25.00;33.20;;;;;;6242539;28;20083;-78
2024/03/17 13:13:17;;;;;;;4.15;1.25;;;25.00;33.20;;;;;;6224325;28;20037;-78
2024/03/17 13:16:21;;;;;;;2.80;1.05;;;25.10;33.10;;;;;;6223874;28;20021;-77
2024/03/17 13:19:22;;;;;;;4.10;1.00;;;25.10;33.00;;;;;;6264052;28;20017;-77
2024/03/17 13:22:24;;;;;;;2.30;0.98;;;25.30;33.00;;;;;;6307979;28;20085;-76
2024/03/17 13:25:33;;;;;;;1.65;0.73;;;25.40;32.90;;;;;;6307666;28;20020;-77
2024/03/17 13:28:36;;;;;;;2.25;0.80;;;25.50;32.70;;;;;;6307274;28;20036;-77
2024/03/17 13:31:44;;;;;;;2.47;0.80;;;25.60;32.50;;;;;;6308798;28;20096;-77
2024/03/17 13:34:45;;;;;;;3.88;1.05;;;25.70;32.70;;;;;;6307824;28;20486;-78
2024/03/17 13:37:49;;;;;;;1.35;0.60;;;25.50;32.50;;;;;;6290395;28;20518;-76
2024/03/17 13:40:50;;;;;;;3.28;1.00;;;25.50;32.20;;;;;;6307310;28;20066;-78
2024/03/17 13:43:57;;;;;;;1.73;0.57;;;25.40;32.00;;;;;;6306733;28;20024;-78
2024/03/17 13:46:58;;;;;;;3.85;0.75;;;25.40;31.80;;;;;;6288996;28;20024;-76
2024/03/17 13:49:59;;;;;;;2.67;1.20;;;25.40;31.70;;;;;;6305588;28;20493;-78
2024/03/17 13:53:03;;;;;;;1.73;0.70;;;25.40;31.50;;;;;;6305089;28;20114;-77
2024/03/17 13:56:05;;;;;;;1.70;1.00;;;25.40;31.40;;;;;;6305365;28;20022;-77
2024/03/17 13:59:05;;;;;;;2.63;1.00;;;25.30;31.30;;;;;;6305073;28;20043;-77
2024/03/17 14:02:13;;;;;;;5.50;0.65;;;25.30;31.20;;;;;;6305301;28;20016;-76
2024/03/17 14:05:17;;;;;;;7.45;0.80;;;25.20;31.20;;;;;;6273073;28;20075;-76
2024/03/17 14:08:18;;;;;;;1.98;0.90;;;25.00;31.40;;;;;;6306748;28;20123;-77
2024/03/17 14:11:20;;;;;;;2.83;0.90;;;24.80;31.40;;;;;;6306262;28;20081;-78
2024/03/17 14:14:22;;;;;;;4.10;0.70;;;24.60;31.80;;;;;;6307272;28;20052;-77
2024/03/17 14:17:25;;;;;;;3.03;0.70;;;24.50;32.20;;;;;;6305969;28;20109;-77
2024/03/17 14:20:26;;;;;;;14.30;1.35;;;24.40;32.30;;;;;;6299733;28;20739;-77
2024/03/17 14:23:29;;;;;;;1.38;0.80;;;24.30;32.20;;;;;;6288686;28;20109;-77
2024/03/17 14:26:30;;;;;;;1.15;0.70;;;24.10;32.30;;;;;;6287763;28;20028;-77
2024/03/17 14:29:33;;;;;;;4.38;0.63;;;24.00;32.50;;;;;;6288059;28;20038;-77
2024/03/17 14:32:34;;;;;;;2.78;0.80;;;23.90;32.50;;;;;;6288376;28;20100;-78
2024/03/17 14:35:37;;;;;;;1.88;0.77;;;23.80;32.60;;;;;;6287923;28;20016;-76
2024/03/17 14:38:38;;;;;;;2.50;0.80;;;23.80;32.50;;;;;;6306356;28;20141;-77
2024/03/17 14:41:39;;;;;;;3.38;1.00;;;23.80;32.50;;;;;;6287814;28;20034;-77
2024/03/17 14:44:40;;;;;;;2.05;0.90;;;23.80;32.50;;;;;;6284784;28;20485;-77
2024/03/17 14:47:41;;;;;;;4.32;1.17;;;23.80;32.50;;;;;;6303006;28;20032;-77
2024/03/17 14:50:42;;;;;;;3.03;1.00;;;23.80;32.50;;;;;;6310397;28;20173;-77
2024/03/17 14:53:47;;;;;;;4.68;1.13;;;23.80;32.40;;;;;;6309251;28;20016;-78
2024/03/17 14:56:50;;;;;;;2.00;0.60;;;23.80;31.90;;;;;;6292110;28;20024;-78
2024/03/17 14:59:51;;;;;;;1.65;0.57;;;23.80;31.70;;;;;;6307550;28;20030;-77
2024/03/17 15:02:52;;;;;;;3.17;0.70;;;23.70;31.50;;;;;;6292121;28;20016;-77
2024/03/17 15:05:54;;;;;;;3.47;0.75;;;23.70;31.30;;;;;;6309453;28;20012;-78
2024/03/17 15:08:54;;;;;;;1.38;0.77;;;23.80;31.00;;;;;;6278838;28;20120;-76
2024/03/17 15:11:56;;;;;;;3.13;0.68;;;23.80;30.70;;;;;;6309090;28;20036;-77
2024/03/17 15:14:57;;;;;;;4.15;0.70;;;23.90;30.80;;;;;;6309751;28;20024;-77
2024/03/17 15:17:59;;;;;;;2.30;0.68;;;24.00;30.50;;;;;;6311262;28;20024;-77
2024/03/17 15:21:06;;;;;;;0.95;0.60;;;24.00;30.50;;;;;;6309431;28;20070;-78
2024/03/17 15:24:07;;;;;;;2.85;0.95;;;24.10;30.70;;;;;;6309236;28;20059;-77
2024/03/17 15:27:09;;;;;;;3.20;0.68;;;24.10;30.80;;;;;;6291934;28;20056;-76
2024/03/17 15:30:14;;;;;;;3.08;0.90;;;24.10;30.90;;;;;;6309307;28;20062;-78
2024/03/17 15:33:15;;;;;;;2.67;0.63;;;24.20;30.80;;;;;;6310385;28;20020;-77
2024/03/17 15:36:16;;;;;;;3.63;0.70;;;24.30;30.90;;;;;;6292984;28;20032;-77
2024/03/17 15:39:17;;;;;;;1.92;0.80;;;24.30;30.80;;;;;;6278836;28;20024;-78
2024/03/17 15:42:19;;;;;;;3.75;1.35;;;24.40;30.90;;;;;;6309365;28;20020;-76
2024/03/17 15:45:20;;;;;;;3.08;0.90;;;24.40;30.90;;;;;;6310503;28;20114;-77
2024/03/17 15:48:23;;;;;;;3.13;0.98;;;24.30;30.70;;;;;;6308833;28;20108;-76
2024/03/17 15:51:24;;;;;;;1.27;0.50;;;24.30;30.70;;;;;;6291468;28;20235;-76
2024/03/17 15:54:25;;;;;;;6.97;1.00;;;24.10;31.00;;;;;;6290319;28;20459;-77
2024/03/17 15:57:27;;;;;;;1.45;0.75;;;24.00;31.10;;;;;;6308372;28;20024;-77